Time;durP1;ratioP1;P1;durP2;ratioP2;P2;SDS_P1;SDS_P2;PMS_P1;PMS_P2;Temp;Humidity;BMP_temperature;BMP_pressure;BME280_temperature;BME280_humidity;BME280_pressure;Samples;Min_cycle;Max_cycle;Signal;HPM_P1;HPM_P2
2022/10/28 00:01:25;;;;;;;25.00;13.77;;;14.80;75.70;;;;;;5082824;28;20217;-81
2022/10/28 00:03:55;;;;;;;24.33;12.50;;;14.80;75.50;;;;;;5090105;28;20200;-81
2022/10/28 00:06:25;;;;;;;27.23;12.40;;;14.80;75.60;;;;;;5096418;28;20229;-80
2022/10/28 00:08:54;;;;;;;25.93;11.87;;;14.80;75.80;;;;;;5087067;28;20690;-80
2022/10/28 00:11:25;;;;;;;24.07;11.70;;;14.80;75.90;;;;;;5093044;28;20270;-81
2022/10/28 00:13:54;;;;;;;20.60;12.20;;;14.80;75.80;;;;;;5087840;28;20193;-82
2022/10/28 00:16:24;;;;;;;18.30;10.97;;;14.80;76.00;;;;;;5093520;28;20250;-81
2022/10/28 00:18:53;;;;;;;21.03;11.57;;;14.80;76.10;;;;;;5081466;28;20233;-75
2022/10/28 00:21:26;;;;;;;20.47;11.47;;;14.80;76.20;;;;;;5090339;28;20217;-80
2022/10/28 00:23:55;;;;;;;23.53;12.00;;;14.80;76.10;;;;;;5087464;28;20220;-80
2022/10/28 00:26:27;;;;;;;19.90;11.83;;;14.80;76.00;;;;;;5096700;28;20267;-80
2022/10/28 00:28:57;;;;;;;21.67;11.17;;;14.70;75.90;;;;;;5096170;28;20197;-81
2022/10/28 00:31:28;;;;;;;24.40;12.17;;;14.70;75.90;;;;;;5088955;28;20272;-81
2022/10/28 00:33:58;;;;;;;22.93;12.23;;;14.70;75.90;;;;;;5093920;28;20225;-81
2022/10/28 00:36:28;;;;;;;23.53;12.00;;;14.70;75.90;;;;;;5086294;28;20714;-79
2022/10/28 00:38:57;;;;;;;24.10;11.67;;;14.70;75.80;;;;;;5089185;28;20655;-81
2022/10/28 00:41:29;;;;;;;25.33;11.20;;;14.70;75.80;;;;;;5090423;28;20245;-81
2022/10/28 00:43:59;;;;;;;21.33;11.83;;;14.60;76.50;;;;;;5093995;28;20212;-80
2022/10/28 00:46:33;;;;;;;21.30;11.43;;;14.70;75.80;;;;;;5090353;28;20315;-81
2022/10/28 00:49:06;;;;;;;21.30;11.00;;;14.70;75.90;;;;;;5087655;28;20262;-82
2022/10/28 00:51:36;;;;;;;26.73;11.90;;;14.70;75.90;;;;;;5097000;28;20284;-81
2022/10/28 00:54:05;;;;;;;23.37;11.40;;;14.70;75.80;;;;;;5094495;28;20217;-81
2022/10/28 00:56:39;;;;;;;22.20;11.80;;;14.70;75.80;;;;;;5094426;28;20230;-80
2022/10/28 00:59:11;;;;;;;25.80;11.20;;;14.70;75.90;;;;;;5084691;28;20202;-81
2022/10/28 01:01:39;;;;;;;24.23;12.17;;;14.70;75.80;;;;;;5084018;28;20238;-81
2022/10/28 01:04:09;;;;;;;19.73;10.97;;;14.70;75.80;;;;;;5086108;28;20277;-80
2022/10/28 01:06:37;;;;;;;23.67;11.43;;;14.70;75.80;;;;;;5092522;28;20202;-81
2022/10/28 01:09:05;;;;;;;22.60;11.40;;;14.60;75.70;;;;;;5093258;28;20239;-81
2022/10/28 01:11:54;;;;;;;22.83;11.17;;;14.70;75.80;;;;;;5088752;28;20229;-81
2022/10/28 01:14:35;;;;;;;24.13;11.63;;;14.60;75.80;;;;;;5089414;28;20198;-81
2022/10/28 01:17:17;;;;;;;23.67;10.70;;;14.60;75.70;;;;;;5091155;28;20285;-81
2022/10/28 01:20:30;;;;;;;21.67;12.43;;;14.60;75.70;;;;;;5087133;28;20214;-82
2022/10/28 01:23:11;;;;;;;21.07;10.67;;;14.60;75.80;;;;;;5092075;28;20201;-82
2022/10/28 01:26:12;;;;;;;23.47;10.40;;;14.60;75.80;;;;;;5099540;28;20225;-81
2022/10/28 01:29:16;;;;;;;19.67;10.00;;;14.50;75.80;;;;;;5085795;28;20189;-81
2022/10/28 01:31:50;;;;;;;22.63;12.00;;;14.50;75.80;;;;;;5093734;28;20447;-80
2022/10/28 01:34:27;;;;;;;25.07;12.00;;;14.50;75.90;;;;;;5090098;28;20570;-80
2022/10/28 01:37:00;;;;;;;17.87;9.80;;;14.50;76.00;;;;;;5090690;28;20681;-80
2022/10/28 01:39:39;;;;;;;21.43;10.73;;;14.40;76.00;;;;;;5086993;28;20241;-81
2022/10/28 01:42:17;;;;;;;19.63;10.93;;;14.40;76.10;;;;;;5089389;28;20274;-82
2022/10/28 01:44:52;;;;;;;19.37;11.63;;;14.40;76.20;;;;;;5091333;28;20197;-82
2022/10/28 01:47:26;;;;;;;18.10;9.67;;;14.40;76.30;;;;;;5096636;28;20224;-81
2022/10/28 01:50:00;;;;;;;22.70;10.77;;;14.30;76.30;;;;;;5087303;28;20694;-82
2022/10/28 01:52:31;;;;;;;20.73;10.73;;;14.30;76.30;;;;;;5088183;28;20270;-82
2022/10/28 01:55:03;;;;;;;17.40;9.87;;;14.30;76.60;;;;;;5093335;28;20320;-82
2022/10/28 01:57:33;;;;;;;20.10;10.10;;;14.30;76.70;;;;;;5091653;28;20197;-82
2022/10/28 02:00:02;;;;;;;21.80;10.47;;;14.30;76.60;;;;;;5087124;28;20440;-81
2022/10/28 02:02:37;;;;;;;21.13;10.27;;;14.20;76.60;;;;;;5095726;28;20239;-80
2022/10/28 02:05:27;;;;;;;23.00;9.77;;;14.20;76.70;;;;;;5089950;28;20189;-78
2022/10/28 02:08:03;;;;;;;19.17;8.97;;;14.20;76.70;;;;;;5081232;28;20261;-81
2022/10/28 02:10:37;;;;;;;23.07;9.73;;;14.20;76.70;;;;;;5090986;28;20228;-80
2022/10/28 02:13:12;;;;;;;18.47;9.73;;;14.20;76.70;;;;;;5097905;28;20193;-82
2022/10/28 02:15:46;;;;;;;19.27;9.20;;;14.20;76.80;;;;;;5085125;28;20243;-82
2022/10/28 02:18:26;;;;;;;17.10;9.33;;;14.20;76.90;;;;;;5084715;28;20596;-80
2022/10/28 02:20:58;;;;;;;15.53;8.17;;;14.20;77.00;;;;;;5092711;28;20252;-81
2022/10/28 02:23:35;;;;;;;18.07;9.70;;;14.10;77.10;;;;;;5089685;28;20258;-81
2022/10/28 02:26:12;;;;;;;19.88;9.38;;;14.10;77.10;;;;;;5087470;28;20852;-82
2022/10/28 02:28:55;;;;;;;15.97;9.00;;;14.10;77.20;;;;;;5092751;28;20221;-82
2022/10/28 02:31:30;;;;;;;14.07;8.07;;;14.10;77.20;;;;;;5086746;28;20655;-82
2022/10/28 02:34:03;;;;;;;15.67;8.20;;;14.10;77.30;;;;;;5085979;28;21270;-81
2022/10/28 02:36:35;;;;;;;16.50;7.70;;;14.10;77.40;;;;;;5089305;28;20273;-82
2022/10/28 02:39:06;;;;;;;17.70;8.47;;;14.10;77.50;;;;;;5095869;28;20553;-81
2022/10/28 02:41:40;;;;;;;13.67;7.93;;;14.10;77.60;;;;;;5097025;28;20210;-79
2022/10/28 02:44:12;;;;;;;17.07;8.60;;;14.00;77.70;;;;;;5085190;28;20232;-81
2022/10/28 02:46:45;;;;;;;14.00;7.90;;;14.00;77.60;;;;;;5087312;28;20280;-82
2022/10/28 02:49:15;;;;;;;18.40;8.83;;;14.00;77.60;;;;;;5090754;28;20548;-82
2022/10/28 02:51:46;;;;;;;16.23;8.23;;;14.00;77.50;;;;;;5092894;28;20272;-82
2022/10/28 02:54:17;;;;;;;17.57;7.80;;;14.00;77.60;;;;;;5092828;28;20325;-81
2022/10/28 02:56:50;;;;;;;13.57;6.97;;;14.10;77.70;;;;;;5093558;28;20678;-82
2022/10/28 02:59:19;;;;;;;18.83;8.00;;;14.00;77.60;;;;;;5092542;28;20228;-83
2022/10/28 03:01:47;;;;;;;18.60;8.30;;;14.00;77.60;;;;;;5093940;28;20737;-82
2022/10/28 03:04:17;;;;;;;14.17;7.03;;;14.00;77.70;;;;;;5089932;28;20250;-81
2022/10/28 03:06:45;;;;;;;13.53;7.10;;;14.00;77.60;;;;;;5080728;28;20251;-81
2022/10/28 03:09:14;;;;;;;15.00;7.70;;;14.00;77.60;;;;;;5094880;28;20623;-81
2022/10/28 03:11:42;;;;;;;13.37;7.23;;;14.00;77.60;;;;;;5084130;28;20250;-82
2022/10/28 03:14:10;;;;;;;13.20;6.93;;;14.00;77.60;;;;;;5090490;28;20851;-81
2022/10/28 03:16:42;;;;;;;16.93;7.90;;;14.00;77.70;;;;;;5088220;28;20204;-80
2022/10/28 03:19:11;;;;;;;14.10;7.30;;;13.90;77.60;;;;;;5087574;28;20232;-82
2022/10/28 03:21:40;;;;;;;14.30;7.17;;;13.90;77.60;;;;;;5088645;28;20681;-82
2022/10/28 03:24:09;;;;;;;11.97;7.23;;;13.90;77.60;;;;;;5091917;28;20193;-81
2022/10/28 03:26:37;;;;;;;16.40;7.20;;;13.90;77.80;;;;;;5092449;28;20198;-81
2022/10/28 03:29:05;;;;;;;15.63;7.03;;;13.90;77.80;;;;;;5091058;28;20730;-80
2022/10/28 03:31:33;;;;;;;14.30;6.83;;;13.90;78.60;;;;;;5083104;28;20190;-82
2022/10/28 03:34:02;;;;;;;17.13;7.50;;;13.90;77.90;;;;;;5085946;28;20296;-82
2022/10/28 03:36:30;;;;;;;13.73;7.50;;;13.90;78.00;;;;;;5098028;28;20228;-82
2022/10/28 03:39:00;;;;;;;15.07;7.03;;;13.80;78.30;;;;;;5086442;28;20287;-82
2022/10/28 03:41:28;;;;;;;16.80;6.93;;;13.80;78.20;;;;;;5090073;28;20264;-81
2022/10/28 03:43:56;;;;;;;15.70;7.37;;;13.80;78.40;;;;;;5087684;28;20221;-81
2022/10/28 03:46:25;;;;;;;17.63;8.63;;;13.80;78.30;;;;;;5097147;28;20198;-82
2022/10/28 03:48:53;;;;;;;14.23;7.63;;;13.80;78.30;;;;;;5095638;28;20198;-81
2022/10/28 03:51:21;;;;;;;17.53;7.67;;;13.80;78.30;;;;;;5093694;28;20248;-81
2022/10/28 03:53:50;;;;;;;14.70;7.47;;;13.80;78.30;;;;;;5079810;28;20264;-81
2022/10/28 03:56:19;;;;;;;14.23;7.33;;;13.80;78.30;;;;;;5092394;28;20263;-81
2022/10/28 03:58:48;;;;;;;16.63;7.57;;;13.80;78.30;;;;;;5090517;28;20270;-81
2022/10/28 04:01:16;;;;;;;12.63;7.27;;;13.80;78.40;;;;;;5098259;28;20217;-82
2022/10/28 04:03:45;;;;;;;13.83;7.67;;;13.70;78.30;;;;;;5088546;28;20197;-82
2022/10/28 04:06:13;;;;;;;14.83;6.63;;;13.70;78.30;;;;;;5083532;28;20815;-81
2022/10/28 04:08:41;;;;;;;15.83;7.43;;;13.70;78.40;;;;;;5088445;28;20819;-79
2022/10/28 04:11:10;;;;;;;13.07;7.10;;;13.70;78.70;;;;;;5100091;28;20630;-82
2022/10/28 04:13:39;;;;;;;13.57;7.33;;;13.70;78.80;;;;;;5099751;28;20238;-79
2022/10/28 04:16:08;;;;;;;14.53;7.10;;;13.70;78.80;;;;;;5088871;28;20613;-83
2022/10/28 04:18:36;;;;;;;13.87;6.47;;;13.60;78.80;;;;;;5086912;28;20201;-80
2022/10/28 04:21:05;;;;;;;20.60;7.37;;;13.60;78.80;;;;;;5091311;28;20580;-80
2022/10/28 04:23:33;;;;;;;13.27;6.70;;;13.60;79.40;;;;;;5087902;28;20713;-81
2022/10/28 04:26:01;;;;;;;15.50;7.57;;;13.60;79.40;;;;;;5087960;28;20236;-82
2022/10/28 04:28:31;;;;;;;14.80;7.00;;;13.60;79.40;;;;;;5091405;28;20197;-81
2022/10/28 04:31:02;;;;;;;13.03;7.10;;;13.50;79.40;;;;;;5082635;28;20229;-81
2022/10/28 04:33:30;;;;;;;16.23;7.77;;;13.50;79.40;;;;;;5093791;28;20284;-81
2022/10/28 04:35:58;;;;;;;16.37;7.03;;;13.50;79.40;;;;;;5089341;28;20605;-80
2022/10/28 04:38:26;;;;;;;20.03;7.50;;;13.50;79.40;;;;;;5087913;28;20237;-81
2022/10/28 04:40:55;;;;;;;15.67;7.97;;;13.50;79.70;;;;;;5089103;28;20240;-82
2022/10/28 04:43:23;;;;;;;14.87;6.73;;;13.50;79.50;;;;;;5092357;28;20239;-81
2022/10/28 04:45:51;;;;;;;15.17;7.83;;;13.40;79.40;;;;;;5091759;28;20230;-82
2022/10/28 04:48:21;;;;;;;13.10;6.87;;;13.40;79.40;;;;;;5088507;28;20258;-81
2022/10/28 04:50:50;;;;;;;16.67;7.50;;;13.40;79.40;;;;;;5093471;28;20193;-81
2022/10/28 04:53:18;;;;;;;17.77;8.80;;;13.40;79.40;;;;;;5085031;28;20489;-81
2022/10/28 04:55:46;;;;;;;13.90;7.17;;;13.40;80.40;;;;;;5090318;28;20238;-80
2022/10/28 04:58:14;;;;;;;16.47;8.10;;;13.40;80.20;;;;;;5089949;28;20654;-80
2022/10/28 05:00:42;;;;;;;14.73;7.17;;;13.40;80.20;;;;;;5087920;28;20229;-83
2022/10/28 05:03:11;;;;;;;14.67;7.57;;;13.40;80.00;;;;;;5089928;28;20268;-81
2022/10/28 05:05:40;;;;;;;16.37;6.93;;;13.40;80.00;;;;;;5090477;28;20256;-82
2022/10/28 05:08:09;;;;;;;18.23;7.20;;;13.40;79.90;;;;;;5091912;28;20194;-82
2022/10/28 05:10:37;;;;;;;14.10;7.60;;;13.40;79.90;;;;;;5085203;28;20240;-81
2022/10/28 05:13:06;;;;;;;14.73;7.27;;;13.40;80.00;;;;;;5089841;28;20185;-82
2022/10/28 05:15:34;;;;;;;19.03;7.80;;;13.40;80.00;;;;;;5083739;28;20228;-82
2022/10/28 05:18:02;;;;;;;13.57;7.77;;;13.40;80.10;;;;;;5086890;28;20536;-82
2022/10/28 05:20:30;;;;;;;14.47;8.00;;;13.40;80.00;;;;;;5089400;28;20197;-82
2022/10/28 05:23:00;;;;;;;19.23;7.87;;;13.40;80.00;;;;;;5087938;28;20829;-83
2022/10/28 05:25:28;;;;;;;16.67;7.97;;;13.40;80.20;;;;;;5084181;28;20233;-82
2022/10/28 05:27:59;;;;;;;12.63;7.53;;;13.50;80.30;;;;;;5083258;28;20225;-82
2022/10/28 05:30:33;;;;;;;17.33;8.47;;;13.50;80.30;;;;;;5091190;28;20228;-81
2022/10/28 05:33:14;;;;;;;17.73;7.97;;;13.50;80.50;;;;;;5055018;28;20197;-81
2022/10/28 05:35:42;;;;;;;17.17;8.30;;;13.50;80.50;;;;;;5079943;28;20642;-79
2022/10/28 05:38:12;;;;;;;16.53;7.10;;;13.50;80.70;;;;;;5083453;28;20219;-80
2022/10/28 05:40:40;;;;;;;16.13;7.90;;;13.50;80.80;;;;;;5090706;28;20194;-83
2022/10/28 05:43:10;;;;;;;15.00;8.27;;;13.60;80.80;;;;;;5088516;28;20214;-83
2022/10/28 05:45:38;;;;;;;14.67;8.30;;;13.60;81.10;;;;;;5091355;28;20224;-82
2022/10/28 05:48:07;;;;;;;22.27;8.70;;;13.60;81.50;;;;;;5090645;28;20197;-82
2022/10/28 05:50:35;;;;;;;20.83;8.87;;;13.60;81.90;;;;;;5092457;28;20209;-82
2022/10/28 05:53:03;;;;;;;20.87;8.67;;;13.60;82.00;;;;;;5091555;28;20232;-83
2022/10/28 05:55:34;;;;;;;17.47;8.70;;;13.60;82.60;;;;;;5091782;28;20202;-82
2022/10/28 05:58:03;;;;;;;22.47;9.40;;;13.60;82.50;;;;;;5088620;28;20718;-82
2022/10/28 06:00:32;;;;;;;17.27;9.67;;;13.70;82.40;;;;;;5089516;28;20609;-82
2022/10/28 06:03:08;;;;;;;19.07;8.87;;;13.70;82.40;;;;;;5086870;28;20236;-82
2022/10/28 06:05:37;;;;;;;16.97;9.47;;;13.70;82.30;;;;;;5086967;28;20192;-82
2022/10/28 06:08:06;;;;;;;20.93;10.20;;;13.80;82.40;;;;;;5089072;28;20285;-82
2022/10/28 06:10:35;;;;;;;16.93;9.23;;;13.80;82.30;;;;;;5094697;28;20280;-82
2022/10/28 06:13:04;;;;;;;20.37;10.43;;;13.80;82.20;;;;;;5093619;28;20621;-83
2022/10/28 06:15:33;;;;;;;22.33;10.60;;;13.90;82.20;;;;;;5091011;28;20202;-82
2022/10/28 06:18:02;;;;;;;21.50;10.47;;;14.00;82.20;;;;;;5095694;28;20240;-82
2022/10/28 06:20:30;;;;;;;21.93;9.50;;;14.00;82.20;;;;;;5089288;28;20236;-84
2022/10/28 06:22:58;;;;;;;23.13;12.33;;;14.00;82.30;;;;;;5095958;28;20247;-83
2022/10/28 06:25:27;;;;;;;20.00;10.67;;;14.10;82.60;;;;;;5091643;28;20760;-82
2022/10/28 06:27:58;;;;;;;25.93;10.83;;;14.20;82.60;;;;;;5090601;28;20642;-81
2022/10/28 06:30:27;;;;;;;28.20;10.47;;;14.20;82.50;;;;;;5095492;28;20190;-80
2022/10/28 06:32:57;;;;;;;22.20;8.10;;;14.30;82.60;;;;;;5093323;28;20923;-82
2022/10/28 06:35:25;;;;;;;13.63;8.00;;;14.30;83.00;;;;;;5106599;28;20290;-82
2022/10/28 06:37:54;;;;;;;15.43;6.60;;;14.40;82.80;;;;;;5097395;28;20218;-83
2022/10/28 06:40:24;;;;;;;16.97;7.17;;;14.50;82.80;;;;;;5094748;28;20617;-83
2022/10/28 06:43:06;;;;;;;14.75;7.78;;;14.50;82.80;;;;;;5095618;28;20491;-83
2022/10/28 06:45:35;;;;;;;16.43;6.80;;;14.60;82.90;;;;;;5093800;28;20246;-83
2022/10/28 06:48:08;;;;;;;12.80;6.80;;;14.70;82.80;;;;;;5101877;28;20247;-83
2022/10/28 06:50:37;;;;;;;16.23;7.10;;;14.80;82.60;;;;;;5103889;28;20236;-82
2022/10/28 06:53:05;;;;;;;13.73;7.00;;;14.90;82.40;;;;;;5098896;28;20686;-81
2022/10/28 06:55:34;;;;;;;17.37;7.57;;;15.00;82.20;;;;;;5096927;28;20244;-82
2022/10/28 06:58:04;;;;;;;13.37;7.47;;;15.10;82.00;;;;;;5095738;28;20233;-82
2022/10/28 07:00:33;;;;;;;13.53;7.20;;;15.10;81.80;;;;;;5103871;28;20243;-83
2022/10/28 07:03:02;;;;;;;14.07;6.60;;;15.20;81.60;;;;;;5092867;28;20692;-82
2022/10/28 07:05:30;;;;;;;13.13;7.30;;;15.30;81.50;;;;;;5101597;28;20247;-84
2022/10/28 07:07:59;;;;;;;10.97;6.63;;;15.30;81.40;;;;;;5094706;28;20194;-82
2022/10/28 07:10:27;;;;;;;16.17;7.47;;;15.40;81.10;;;;;;5098192;28;20233;-80
2022/10/28 07:12:55;;;;;;;17.57;7.07;;;15.50;81.00;;;;;;5093144;28;20611;-82
2022/10/28 07:15:25;;;;;;;23.97;7.97;;;15.50;80.80;;;;;;5104228;28;20554;-79
2022/10/28 07:17:54;;;;;;;14.23;7.57;;;15.60;80.50;;;;;;5094076;28;20335;-82
2022/10/28 07:20:23;;;;;;;12.77;6.87;;;15.60;80.20;;;;;;5092511;28;20231;-82
2022/10/28 07:22:56;;;;;;;17.73;7.93;;;15.60;80.10;;;;;;5088675;28;20205;-83
2022/10/28 07:25:25;;;;;;;14.93;7.10;;;15.60;80.00;;;;;;5089657;28;20201;-80
2022/10/28 07:27:53;;;;;;;14.33;7.30;;;15.70;80.00;;;;;;5086354;28;20281;-80
2022/10/28 07:30:22;;;;;;;15.33;7.53;;;15.80;80.00;;;;;;5086336;28;20510;-80
2022/10/28 07:32:52;;;;;;;16.60;7.83;;;15.80;80.00;;;;;;5089816;28;21107;-80
2022/10/28 07:35:21;;;;;;;12.93;7.43;;;15.90;80.00;;;;;;5089930;28;20631;-81
2022/10/28 07:37:49;;;;;;;11.97;7.20;;;15.90;79.70;;;;;;5090040;28;20282;-81
2022/10/28 07:40:18;;;;;;;18.93;8.47;;;16.00;79.50;;;;;;5101102;28;20197;-81
2022/10/28 07:42:46;;;;;;;21.67;8.70;;;16.00;79.10;;;;;;5094881;28;20553;-83
2022/10/28 07:45:17;;;;;;;15.03;8.60;;;16.10;78.70;;;;;;5101546;28;20243;-83
2022/10/28 07:47:45;;;;;;;16.93;8.10;;;16.10;78.50;;;;;;5090920;28;20234;-82
2022/10/28 07:50:15;;;;;;;16.00;8.57;;;16.20;78.40;;;;;;5094985;28;20198;-81
2022/10/28 07:52:43;;;;;;;18.27;8.63;;;16.20;78.00;;;;;;5097511;28;20224;-83
2022/10/28 07:55:12;;;;;;;19.77;8.40;;;16.30;78.10;;;;;;5086810;28;20344;-83
2022/10/28 07:57:40;;;;;;;14.07;7.40;;;16.40;78.10;;;;;;5097559;28;20201;-83
2022/10/28 08:00:09;;;;;;;16.50;7.63;;;16.40;77.80;;;;;;5093851;28;20205;-85
2022/10/28 08:02:38;;;;;;;13.73;7.83;;;16.50;77.80;;;;;;5088830;28;20198;-83
2022/10/28 08:05:07;;;;;;;15.23;8.13;;;16.50;77.50;;;;;;5088991;28;20225;-81
2022/10/28 08:07:36;;;;;;;14.87;8.03;;;16.60;77.50;;;;;;5087121;28;20233;-80
2022/10/28 08:10:07;;;;;;;18.20;7.77;;;16.70;77.40;;;;;;5081934;28;20276;-77
2022/10/28 08:12:35;;;;;;;17.20;7.70;;;16.70;77.20;;;;;;5088989;28;20902;-80
2022/10/28 08:15:04;;;;;;;17.83;7.57;;;16.80;76.90;;;;;;5089152;28;20254;-79
2022/10/28 08:17:32;;;;;;;12.20;7.60;;;16.80;76.80;;;;;;5088966;28;20202;-78
2022/10/28 08:20:01;;;;;;;23.07;7.90;;;16.90;76.80;;;;;;5087700;28;21165;-79
2022/10/28 08:22:29;;;;;;;15.63;7.87;;;17.00;76.60;;;;;;5088893;28;20246;-79
2022/10/28 08:24:58;;;;;;;17.27;7.03;;;17.00;76.40;;;;;;5086610;28;20209;-79
2022/10/28 08:27:27;;;;;;;17.33;7.47;;;17.10;76.60;;;;;;5101024;28;20223;-78
2022/10/28 08:29:55;;;;;;;18.57;7.60;;;17.20;76.40;;;;;;5099975;28;20676;-80
2022/10/28 08:32:23;;;;;;;14.93;7.53;;;17.30;76.10;;;;;;5091785;28;20197;-80
2022/10/28 08:34:51;;;;;;;18.93;8.40;;;17.30;75.80;;;;;;5087453;28;20190;-79
2022/10/28 08:37:19;;;;;;;19.50;7.93;;;17.40;75.70;;;;;;5092791;28;20304;-80
2022/10/28 08:39:48;;;;;;;15.63;8.20;;;17.50;75.80;;;;;;5092065;28;20232;-81
2022/10/28 08:42:33;;;;;;;17.67;8.47;;;17.60;75.50;;;;;;5088498;28;20225;-82
2022/10/28 08:45:18;;;;;;;17.33;7.20;;;17.60;75.30;;;;;;5078971;28;20233;-80
2022/10/28 08:47:55;;;;;;;20.90;7.80;;;17.70;75.10;;;;;;5094381;28;20646;-80
2022/10/28 08:50:30;;;;;;;17.10;7.63;;;17.80;75.20;;;;;;5097987;28;20650;-80
2022/10/28 08:53:02;;;;;;;12.90;6.87;;;17.90;75.00;;;;;;5103395;28;20238;-80
2022/10/28 08:55:34;;;;;;;17.03;7.77;;;17.90;74.80;;;;;;5087895;28;20299;-80
2022/10/28 08:58:10;;;;;;;16.33;7.37;;;18.00;74.40;;;;;;5085666;28;20267;-80
2022/10/28 09:00:46;;;;;;;13.23;7.57;;;18.10;74.30;;;;;;5081142;28;20746;-81
2022/10/28 09:03:21;;;;;;;13.32;7.10;;;18.10;74.00;;;;;;5093231;28;20488;-83
2022/10/28 09:05:53;;;;;;;13.47;6.77;;;18.20;73.60;;;;;;5098441;28;20224;-83
2022/10/28 09:08:23;;;;;;;14.37;6.60;;;18.20;73.40;;;;;;5085384;28;20225;-83
2022/10/28 09:11:13;;;;;;;14.63;7.23;;;18.30;73.40;;;;;;5082324;28;20719;-82
2022/10/28 09:14:01;;;;;;;11.60;6.70;;;18.40;72.10;;;;;;5093143;28;20240;-82
2022/10/28 09:16:45;;;;;;;14.23;7.93;;;18.40;71.90;;;;;;5082563;28;20222;-80
2022/10/28 09:19:28;;;;;;;14.87;6.87;;;18.40;71.80;;;;;;5083956;28;20621;-81
2022/10/28 09:22:06;;;;;;;15.67;7.10;;;18.50;71.80;;;;;;5085733;28;20221;-81
2022/10/28 09:24:45;;;;;;;14.35;7.57;;;18.60;71.90;;;;;;5090362;28;20496;-82
2022/10/28 09:27:22;;;;;;;18.87;7.80;;;18.70;71.20;;;;;;5091991;28;20230;-84
2022/10/28 09:30:01;;;;;;;12.00;6.63;;;18.70;70.60;;;;;;5090518;28;20239;-82
2022/10/28 09:32:41;;;;;;;14.80;6.77;;;18.80;70.80;;;;;;5082702;28;20197;-85
2022/10/28 09:35:13;;;;;;;12.10;7.00;;;18.80;70.10;;;;;;5083798;28;20247;-83
2022/10/28 09:37:47;;;;;;;15.57;7.50;;;18.90;70.20;;;;;;5090550;28;20465;-86
2022/10/28 09:40:20;;;;;;;16.53;7.87;;;19.00;70.10;;;;;;5091209;28;20206;-85
2022/10/28 09:42:57;;;;;;;12.43;7.30;;;19.00;69.10;;;;;;5086802;28;20190;-83
2022/10/28 09:45:30;;;;;;;11.77;6.67;;;19.00;69.10;;;;;;5088123;28;20235;-83
2022/10/28 09:48:05;;;;;;;16.97;6.70;;;19.10;69.20;;;;;;5098925;28;20649;-85
2022/10/28 09:50:33;;;;;;;13.10;6.17;;;19.20;69.80;;;;;;5089997;28;20232;-82
2022/10/28 09:53:14;;;;;;;12.47;7.40;;;19.20;69.20;;;;;;5091505;28;20233;-84
2022/10/28 09:55:43;;;;;;;21.53;6.90;;;19.30;68.50;;;;;;5080857;28;20317;-87
2022/10/28 09:58:13;;;;;;;13.63;6.07;;;19.40;68.00;;;;;;5090314;28;20221;-89
2022/10/28 10:00:44;;;;;;;14.87;5.63;;;19.40;67.80;;;;;;5097706;28;20671;-83
2022/10/28 10:03:19;;;;;;;15.02;4.70;;;19.50;67.80;;;;;;5091719;28;20449;-87
2022/10/28 10:05:52;;;;;;;10.30;4.63;;;19.60;66.50;;;;;;5098600;28;20669;-89
2022/10/28 10:08:22;;;;;;;14.13;4.63;;;19.60;66.40;;;;;;5098098;28;20197;-87
2022/10/28 10:10:54;;;;;;;9.87;5.33;;;19.70;65.70;;;;;;5090886;28;20190;-85
2022/10/28 10:13:27;;;;;;;13.43;5.03;;;19.70;66.10;;;;;;5091027;28;20322;-81
2022/10/28 10:16:00;;;;;;;10.95;4.82;;;19.80;66.30;;;;;;5093569;28;20193;-86
2022/10/28 10:18:32;;;;;;;8.33;5.20;;;19.80;66.00;;;;;;5093339;28;20201;-84
2022/10/28 10:21:01;;;;;;;16.93;6.10;;;19.90;65.60;;;;;;5102255;28;20248;-85
2022/10/28 10:23:32;;;;;;;14.98;5.43;;;19.90;65.80;;;;;;5096436;28;20193;-87
2022/10/28 10:26:04;;;;;;;13.07;5.55;;;20.00;65.80;;;;;;5094262;28;20241;-84
2022/10/28 10:28:44;;;;;;;10.48;4.68;;;20.10;65.70;;;;;;5089653;28;20189;-86
2022/10/28 10:31:20;;;;;;;11.07;5.90;;;20.10;65.30;;;;;;5105563;28;20189;-86
2022/10/28 10:33:50;;;;;;;9.27;5.25;;;20.20;65.00;;;;;;5095353;28;20186;-87
2022/10/28 10:36:22;;;;;;;11.82;5.50;;;20.30;65.30;;;;;;5097379;28;20190;-85
2022/10/28 10:38:52;;;;;;;11.07;4.93;;;20.30;65.00;;;;;;5098781;28;20658;-87
2022/10/28 10:41:34;;;;;;;8.05;4.70;;;20.40;64.90;;;;;;5097161;28;20225;-88
2022/10/28 10:44:05;;;;;;;19.58;5.78;;;20.50;64.80;;;;;;5102143;28;20277;-86
2022/10/28 10:46:40;;;;;;;13.40;5.35;;;20.50;64.90;;;;;;5096039;28;20254;-82
2022/10/28 10:49:14;;;;;;;12.00;5.63;;;20.60;64.80;;;;;;5094424;28;20437;-83
2022/10/28 10:51:51;;;;;;;13.45;5.50;;;20.80;63.30;;;;;;5093872;28;20189;-83
2022/10/28 10:54:21;;;;;;;9.40;5.15;;;20.70;63.60;;;;;;5097736;28;20257;-86
2022/10/28 10:56:49;;;;;;;10.05;4.78;;;20.80;63.70;;;;;;5101007;28;20229;-87
2022/10/28 10:59:23;;;;;;;8.75;4.72;;;20.80;63.60;;;;;;5097863;28;20193;-86
2022/10/28 11:01:55;;;;;;;10.07;4.95;;;20.90;63.50;;;;;;5088670;28;20678;-85
2022/10/28 11:04:26;;;;;;;10.30;5.25;;;21.00;63.30;;;;;;5090962;28;20291;-86
2022/10/28 11:06:56;;;;;;;10.05;5.22;;;21.00;63.40;;;;;;5089899;28;20255;-81
2022/10/28 11:09:31;;;;;;;13.77;5.25;;;21.10;63.30;;;;;;5094251;28;20334;-85
2022/10/28 11:11:59;;;;;;;8.93;4.57;;;21.10;62.90;;;;;;5093908;28;20190;-85
2022/10/28 11:14:30;;;;;;;10.30;4.95;;;21.20;63.00;;;;;;5096874;28;20304;-84
2022/10/28 11:17:01;;;;;;;9.10;4.47;;;21.20;62.80;;;;;;5096747;28;20660;-85
2022/10/28 11:19:31;;;;;;;12.45;5.60;;;21.20;62.70;;;;;;5091702;28;20247;-86
2022/10/28 11:22:18;;;;;;;8.60;4.65;;;21.30;62.80;;;;;;5091272;28;20551;-86
2022/10/28 11:25:08;;;;;;;7.07;4.75;;;21.30;62.60;;;;;;5085094;28;20211;-86
2022/10/28 11:27:49;;;;;;;12.63;5.47;;;21.40;62.30;;;;;;5093575;28;20248;-85
2022/10/28 11:30:33;;;;;;;11.30;5.00;;;21.50;62.20;;;;;;5097391;28;20659;-79
2022/10/28 11:33:11;;;;;;;13.55;4.75;;;21.50;62.40;;;;;;5093173;28;20229;-82
2022/10/28 11:36:08;;;;;;;9.45;4.63;;;21.60;61.50;;;;;;5093857;28;20227;-85
2022/10/28 11:39:02;;;;;;;10.73;5.13;;;21.60;61.50;;;;;;5089890;28;20741;-87
2022/10/28 11:41:40;;;;;;;8.90;4.95;;;21.70;61.30;;;;;;5089026;28;20202;-85
2022/10/28 11:44:22;;;;;;;8.35;4.07;;;21.70;61.60;;;;;;5084520;28;20253;-84
2022/10/28 11:47:01;;;;;;;12.32;4.60;;;21.80;61.60;;;;;;5090074;28;20212;-85
2022/10/28 11:50:00;;;;;;;8.35;4.22;;;21.80;60.50;;;;;;5090139;28;20194;-86
2022/10/28 11:52:48;;;;;;;7.00;4.00;;;21.80;60.50;;;;;;5086257;28;20650;-85
2022/10/28 11:55:27;;;;;;;9.45;4.13;;;21.90;61.00;;;;;;5091954;28;20229;-85
2022/10/28 11:58:20;;;;;;;6.38;3.60;;;21.90;61.10;;;;;;5090421;28;20194;-85
2022/10/28 12:00:58;;;;;;;8.93;4.63;;;22.00;61.20;;;;;;5048776;28;20225;-85
2022/10/28 12:03:52;;;;;;;8.30;4.50;;;22.10;61.20;;;;;;5090762;28;20665;-83
2022/10/28 12:06:46;;;;;;;8.70;4.60;;;22.10;60.50;;;;;;5094042;28;20233;-84
2022/10/28 12:09:26;;;;;;;10.27;4.25;;;22.10;60.50;;;;;;5088782;28;20272;-84
2022/10/28 12:12:06;;;;;;;8.60;4.00;;;22.20;60.00;;;;;;5088162;28;20673;-88
2022/10/28 12:14:44;;;;;;;9.52;3.90;;;22.20;60.30;;;;;;5097037;28;20194;-85
2022/10/28 12:17:19;;;;;;;5.78;3.60;;;22.30;60.10;;;;;;5092759;28;20246;-85
2022/10/28 12:19:54;;;;;;;7.00;3.28;;;22.30;59.60;;;;;;5083724;28;20217;-84
2022/10/28 12:22:27;;;;;;;8.45;2.83;;;22.30;59.50;;;;;;5090058;28;20211;-87
2022/10/28 12:24:56;;;;;;;6.75;3.33;;;22.40;59.50;;;;;;5093263;28;20662;-86
2022/10/28 12:27:29;;;;;;;7.22;2.78;;;22.40;59.60;;;;;;5091922;28;20941;-82
2022/10/28 12:30:03;;;;;;;6.50;2.95;;;22.40;59.40;;;;;;5093048;28;20189;-85
2022/10/28 12:32:35;;;;;;;6.63;3.40;;;22.50;59.50;;;;;;5097755;28;20226;-87
2022/10/28 12:35:10;;;;;;;7.40;3.20;;;22.50;59.40;;;;;;5089932;28;20227;-85
2022/10/28 12:37:44;;;;;;;11.55;3.63;;;22.50;59.10;;;;;;5095598;28;20224;-85
2022/10/28 12:40:20;;;;;;;7.00;3.22;;;22.60;58.50;;;;;;5094124;28;20194;-85
2022/10/28 12:42:54;;;;;;;7.18;3.17;;;22.60;58.80;;;;;;5090238;28;20189;-84
2022/10/28 12:45:23;;;;;;;6.60;3.15;;;22.60;58.30;;;;;;5086406;28;20575;-85
2022/10/28 12:47:58;;;;;;;6.45;3.08;;;22.70;58.60;;;;;;5089825;28;20608;-84
2022/10/28 12:50:34;;;;;;;8.88;3.60;;;22.70;58.30;;;;;;5093273;28;20251;-86
2022/10/28 12:53:24;;;;;;;11.02;3.40;;;22.80;58.60;;;;;;5089768;28;20224;-86
2022/10/28 12:55:58;;;;;;;6.50;3.13;;;22.80;58.70;;;;;;5089852;28;20813;-84
2022/10/28 12:58:32;;;;;;;6.50;3.13;;;22.80;58.70;;;;;;5095001;28;20205;-83
2022/10/28 13:01:04;;;;;;;18.42;4.45;;;22.90;57.80;;;;;;5089214;28;20237;-83
2022/10/28 13:03:32;;;;;;;3.83;2.40;;;23.00;57.90;;;;;;5090257;28;20266;-81